sensor_id;sensor_type;location;lat;lon;timestamp;pressure;altitude;pressure_sealevel;temperature;humidity
55538;BME280;41383;51.418;7.286;2023-04-04T00:02:02;101149.72;;;3.64;56.01
55538;BME280;41383;51.418;7.286;2023-04-04T00:04:28;101140.59;;;3.65;56.45
55538;BME280;41383;51.418;7.286;2023-04-04T00:06:53;101149.06;;;3.61;56.28
55538;BME280;41383;51.418;7.286;2023-04-04T00:09:19;101148.88;;;3.63;56.66
55538;BME280;41383;51.418;7.286;2023-04-04T00:11:44;101162.09;;;3.58;56.06
55538;BME280;41383;51.418;7.286;2023-04-04T00:14:10;101150.00;;;3.54;56.44
55538;BME280;41383;51.418;7.286;2023-04-04T00:16:35;101148.97;;;3.55;56.53
55538;BME280;41383;51.418;7.286;2023-04-04T00:19:01;101155.56;;;3.52;56.94
55538;BME280;41383;51.418;7.286;2023-04-04T00:21:26;101154.09;;;3.49;57.23
55538;BME280;41383;51.418;7.286;2023-04-04T00:23:53;101161.31;;;3.49;57.10
55538;BME280;41383;51.418;7.286;2023-04-04T00:26:18;101154.25;;;3.48;56.88
55538;BME280;41383;51.418;7.286;2023-04-04T00:28:45;101148.84;;;3.48;57.19
55538;BME280;41383;51.418;7.286;2023-04-04T00:31:10;101159.16;;;3.44;57.74
55538;BME280;41383;51.418;7.286;2023-04-04T00:33:35;101153.78;;;3.44;57.26
55538;BME280;41383;51.418;7.286;2023-04-04T00:36:01;101157.13;;;3.46;57.57
55538;BME280;41383;51.418;7.286;2023-04-04T00:38:26;101158.97;;;3.46;57.29
55538;BME280;41383;51.418;7.286;2023-04-04T00:40:55;101151.47;;;3.41;57.08
55538;BME280;41383;51.418;7.286;2023-04-04T00:43:21;101153.69;;;3.37;57.33
55538;BME280;41383;51.418;7.286;2023-04-04T00:45:47;101157.94;;;3.32;57.55
55538;BME280;41383;51.418;7.286;2023-04-04T00:48:13;101163.31;;;3.32;57.54
55538;BME280;41383;51.418;7.286;2023-04-04T00:50:38;101162.13;;;3.34;57.33
55538;BME280;41383;51.418;7.286;2023-04-04T00:53:04;101153.19;;;3.34;57.64
55538;BME280;41383;51.418;7.286;2023-04-04T00:55:29;101166.19;;;3.30;57.50
55538;BME280;41383;51.418;7.286;2023-04-04T00:57:57;101162.50;;;3.31;57.48
55538;BME280;41383;51.418;7.286;2023-04-04T01:00:22;101158.31;;;3.29;57.50
55538;BME280;41383;51.418;7.286;2023-04-04T01:02:48;101165.19;;;3.31;57.92
55538;BME280;41383;51.418;7.286;2023-04-04T01:05:14;101163.88;;;3.27;58.36
55538;BME280;41383;51.418;7.286;2023-04-04T01:07:40;101167.97;;;3.23;58.23
55538;BME280;41383;51.418;7.286;2023-04-04T01:10:06;101162.25;;;3.18;58.46
55538;BME280;41383;51.418;7.286;2023-04-04T01:12:31;101163.28;;;3.17;57.70
55538;BME280;41383;51.418;7.286;2023-04-04T01:14:56;101151.19;;;3.12;57.92
55538;BME280;41383;51.418;7.286;2023-04-04T01:17:22;101147.00;;;3.10;57.79
55538;BME280;41383;51.418;7.286;2023-04-04T01:20:07;101152.56;;;3.08;57.67
55538;BME280;41383;51.418;7.286;2023-04-04T01:22:36;101152.44;;;3.01;58.69
55538;BME280;41383;51.418;7.286;2023-04-04T01:25:04;101147.91;;;3.02;58.40
55538;BME280;41383;51.418;7.286;2023-04-04T01:27:30;101151.72;;;3.08;58.72
55538;BME280;41383;51.418;7.286;2023-04-04T01:29:55;101145.50;;;3.07;58.90
55538;BME280;41383;51.418;7.286;2023-04-04T01:32:36;101139.28;;;3.07;58.69
55538;BME280;41383;51.418;7.286;2023-04-04T01:35:15;101138.06;;;3.09;58.57
55538;BME280;41383;51.418;7.286;2023-04-04T01:37:59;101146.81;;;3.11;58.67
55538;BME280;41383;51.418;7.286;2023-04-04T01:40:31;101138.91;;;3.10;59.14
55538;BME280;41383;51.418;7.286;2023-04-04T01:43:01;101136.41;;;3.08;58.95
55538;BME280;41383;51.418;7.286;2023-04-04T01:45:27;101136.41;;;3.08;59.19
55538;BME280;41383;51.418;7.286;2023-04-04T01:47:54;101131.38;;;3.05;58.92
55538;BME280;41383;51.418;7.286;2023-04-04T01:50:20;101132.56;;;3.02;58.74
55538;BME280;41383;51.418;7.286;2023-04-04T01:52:46;101131.06;;;3.00;58.97
55538;BME280;41383;51.418;7.286;2023-04-04T01:55:11;101133.94;;;2.98;58.87
55538;BME280;41383;51.418;7.286;2023-04-04T01:57:36;101124.69;;;3.01;58.77
55538;BME280;41383;51.418;7.286;2023-04-04T02:00:02;101127.72;;;2.98;58.91
55538;BME280;41383;51.418;7.286;2023-04-04T02:02:29;101124.75;;;2.92;59.05
55538;BME280;41383;51.418;7.286;2023-04-04T02:04:54;101120.16;;;2.93;59.23
55538;BME280;41383;51.418;7.286;2023-04-04T02:07:20;101127.44;;;2.92;59.55
55538;BME280;41383;51.418;7.286;2023-04-04T02:09:45;101122.75;;;2.86;58.85
55538;BME280;41383;51.418;7.286;2023-04-04T02:12:10;101130.84;;;2.86;58.88
55538;BME280;41383;51.418;7.286;2023-04-04T02:14:36;101123.25;;;2.90;58.28
55538;BME280;41383;51.418;7.286;2023-04-04T02:17:02;101119.34;;;2.92;58.48
55538;BME280;41383;51.418;7.286;2023-04-04T02:19:27;101121.66;;;2.96;58.99
55538;BME280;41383;51.418;7.286;2023-04-04T02:21:52;101120.81;;;2.95;58.62
55538;BME280;41383;51.418;7.286;2023-04-04T02:24:18;101116.75;;;2.99;58.53
55538;BME280;41383;51.418;7.286;2023-04-04T02:26:43;101128.38;;;3.00;58.42
55538;BME280;41383;51.418;7.286;2023-04-04T02:29:08;101127.44;;;2.92;58.82
55538;BME280;41383;51.418;7.286;2023-04-04T02:31:33;101127.44;;;2.92;58.75
55538;BME280;41383;51.418;7.286;2023-04-04T02:33:59;101116.06;;;2.82;59.12
55538;BME280;41383;51.418;7.286;2023-04-04T02:36:24;101122.63;;;2.79;59.32
55538;BME280;41383;51.418;7.286;2023-04-04T02:38:49;101135.16;;;2.72;59.17
55538;BME280;41383;51.418;7.286;2023-04-04T02:41:15;101129.22;;;2.77;58.98
55538;BME280;41383;51.418;7.286;2023-04-04T02:43:40;101121.84;;;2.71;58.89
55538;BME280;41383;51.418;7.286;2023-04-04T02:46:06;101121.38;;;2.67;58.84
55538;BME280;41383;51.418;7.286;2023-04-04T02:48:31;101120.84;;;2.72;58.67
55538;BME280;41383;51.418;7.286;2023-04-04T02:50:56;101122.50;;;2.73;59.23
55538;BME280;41383;51.418;7.286;2023-04-04T02:53:21;101119.03;;;2.64;59.95
55538;BME280;41383;51.418;7.286;2023-04-04T02:55:47;101120.59;;;2.58;60.08
55538;BME280;41383;51.418;7.286;2023-04-04T02:58:12;101121.41;;;2.59;59.99
55538;BME280;41383;51.418;7.286;2023-04-04T03:00:38;101117.72;;;2.60;59.98
55538;BME280;41383;51.418;7.286;2023-04-04T03:03:03;101111.84;;;2.56;60.04
55538;BME280;41383;51.418;7.286;2023-04-04T03:05:29;101109.81;;;2.58;59.94
55538;BME280;41383;51.418;7.286;2023-04-04T03:07:56;101113.19;;;2.60;59.46
55538;BME280;41383;51.418;7.286;2023-04-04T03:10:22;101115.50;;;2.63;59.40
55538;BME280;41383;51.418;7.286;2023-04-04T03:12:48;101103.72;;;2.64;60.16
55538;BME280;41383;51.418;7.286;2023-04-04T03:15:13;101105.03;;;2.68;59.31
55538;BME280;41383;51.418;7.286;2023-04-04T03:17:39;101107.91;;;2.67;59.56
55538;BME280;41383;51.418;7.286;2023-04-04T03:20:05;101107.09;;;2.66;58.91
55538;BME280;41383;51.418;7.286;2023-04-04T03:22:30;101110.41;;;2.68;59.48
55538;BME280;41383;51.418;7.286;2023-04-04T03:24:56;101116.88;;;2.59;59.13
55538;BME280;41383;51.418;7.286;2023-04-04T03:27:21;101114.84;;;2.61;59.29
55538;BME280;41383;51.418;7.286;2023-04-04T03:29:46;101120.41;;;2.60;59.80
55538;BME280;41383;51.418;7.286;2023-04-04T03:32:12;101122.31;;;2.51;59.79
55538;BME280;41383;51.418;7.286;2023-04-04T03:34:37;101106.88;;;2.44;59.60
55538;BME280;41383;51.418;7.286;2023-04-04T03:37:03;101099.50;;;2.38;60.29
55538;BME280;41383;51.418;7.286;2023-04-04T03:39:28;101103.56;;;2.34;60.22
55538;BME280;41383;51.418;7.286;2023-04-04T03:41:55;101097.50;;;2.32;60.21
55538;BME280;41383;51.418;7.286;2023-04-04T03:44:21;101099.19;;;2.33;60.44
55538;BME280;41383;51.418;7.286;2023-04-04T03:46:46;101088.78;;;2.30;60.25
55538;BME280;41383;51.418;7.286;2023-04-04T03:49:12;101090.16;;;2.26;60.49
55538;BME280;41383;51.418;7.286;2023-04-04T03:51:37;101092.19;;;2.24;60.72
55538;BME280;41383;51.418;7.286;2023-04-04T03:54:02;101081.75;;;2.20;60.81
55538;BME280;41383;51.418;7.286;2023-04-04T03:56:29;101088.50;;;2.16;60.88
55538;BME280;41383;51.418;7.286;2023-04-04T03:58:55;101088.50;;;2.16;60.64
55538;BME280;41383;51.418;7.286;2023-04-04T04:01:20;101089.88;;;2.12;60.26
55538;BME280;41383;51.418;7.286;2023-04-04T04:03:45;101088.56;;;2.08;61.23
55538;BME280;41383;51.418;7.286;2023-04-04T04:06:11;101090.44;;;2.07;60.85
55538;BME280;41383;51.418;7.286;2023-04-04T04:08:36;101095.63;;;2.09;60.63
55538;BME280;41383;51.418;7.286;2023-04-04T04:11:03;101085.19;;;2.06;60.71
55538;BME280;41383;51.418;7.286;2023-04-04T04:13:29;101086.88;;;2.07;60.93
55538;BME280;41383;51.418;7.286;2023-04-04T04:15:55;101088.91;;;2.05;60.91
55538;BME280;41383;51.418;7.286;2023-04-04T04:18:20;101088.56;;;2.08;60.94
55538;BME280;41383;51.418;7.286;2023-04-04T04:20:46;101087.84;;;2.14;60.73
55538;BME280;41383;51.418;7.286;2023-04-04T04:23:11;101076.97;;;2.07;60.52
55538;BME280;41383;51.418;7.286;2023-04-04T04:25:36;101083.53;;;2.05;61.21
55538;BME280;41383;51.418;7.286;2023-04-04T04:28:01;101085.38;;;2.04;61.48
55538;BME280;41383;51.418;7.286;2023-04-04T04:30:27;101090.28;;;2.01;61.88
55538;BME280;41383;51.418;7.286;2023-04-04T04:32:52;101089.09;;;2.03;61.57
55538;BME280;41383;51.418;7.286;2023-04-04T04:35:17;101084.53;;;2.04;62.22
55538;BME280;41383;51.418;7.286;2023-04-04T04:37:42;101081.19;;;2.02;62.18
55538;BME280;41383;51.418;7.286;2023-04-04T04:40:08;101089.63;;;1.98;61.60
55538;BME280;41383;51.418;7.286;2023-04-04T04:42:34;101081.22;;;1.93;61.51
55538;BME280;41383;51.418;7.286;2023-04-04T04:44:59;101076.19;;;1.90;62.18
55538;BME280;41383;51.418;7.286;2023-04-04T04:47:25;101080.59;;;1.83;61.68
55538;BME280;41383;51.418;7.286;2023-04-04T04:49:50;101066.50;;;1.81;62.60
55538;BME280;41383;51.418;7.286;2023-04-04T04:52:15;101090.16;;;1.85;62.26
55538;BME280;41383;51.418;7.286;2023-04-04T04:54:41;101072.00;;;1.88;61.90
55538;BME280;41383;51.418;7.286;2023-04-04T04:57:07;101080.91;;;1.88;61.75
55538;BME280;41383;51.418;7.286;2023-04-04T04:59:33;101071.19;;;1.87;61.72
55538;BME280;41383;51.418;7.286;2023-04-04T05:01:58;101081.94;;;1.87;61.92
55538;BME280;41383;51.418;7.286;2023-04-04T05:04:23;101080.06;;;1.88;61.96
55538;BME280;41383;51.418;7.286;2023-04-04T05:06:49;101084.09;;;1.92;61.96
55538;BME280;41383;51.418;7.286;2023-04-04T05:09:14;101078.69;;;1.92;62.03
55538;BME280;41383;51.418;7.286;2023-04-04T05:11:39;101079.91;;;1.89;61.66
55538;BME280;41383;51.418;7.286;2023-04-04T05:14:05;101082.94;;;1.86;61.78
55538;BME280;41383;51.418;7.286;2023-04-04T05:16:30;101089.81;;;1.89;62.19
55538;BME280;41383;51.418;7.286;2023-04-04T05:18:56;101089.66;;;1.82;62.35
55538;BME280;41383;51.418;7.286;2023-04-04T05:21:21;101089.34;;;1.85;61.85
55538;BME280;41383;51.418;7.286;2023-04-04T05:23:47;101083.59;;;1.88;62.24
55538;BME280;41383;51.418;7.286;2023-04-04T05:26:12;101083.59;;;1.88;62.08
55538;BME280;41383;51.418;7.286;2023-04-04T05:28:38;101088.78;;;1.90;62.42
55538;BME280;41383;51.418;7.286;2023-04-04T05:31:04;101086.09;;;1.90;62.23
55538;BME280;41383;51.418;7.286;2023-04-04T05:33:29;101090.97;;;1.94;61.92
55538;BME280;41383;51.418;7.286;2023-04-04T05:35:55;101087.09;;;1.97;62.21
55538;BME280;41383;51.418;7.286;2023-04-04T05:38:20;101095.00;;;1.98;62.07
55538;BME280;41383;51.418;7.286;2023-04-04T05:40:46;101097.31;;;2.02;62.46
55538;BME280;41383;51.418;7.286;2023-04-04T05:43:11;101110.78;;;2.02;62.23
55538;BME280;41383;51.418;7.286;2023-04-04T05:45:37;101108.41;;;2.07;62.36
55538;BME280;41383;51.418;7.286;2023-04-04T05:48:02;101107.88;;;2.12;62.34
55538;BME280;41383;51.418;7.286;2023-04-04T05:50:28;101111.88;;;2.16;61.92
55538;BME280;41383;51.418;7.286;2023-04-04T05:52:54;101107.34;;;2.16;61.83
55538;BME280;41383;51.418;7.286;2023-04-04T05:55:20;101101.31;;;2.14;62.31
55538;BME280;41383;51.418;7.286;2023-04-04T05:57:49;101114.75;;;2.14;62.98
55538;BME280;41383;51.418;7.286;2023-04-04T06:00:15;101112.72;;;2.16;63.02
55538;BME280;41383;51.418;7.286;2023-04-04T06:02:41;101116.22;;;2.25;62.83
55538;BME280;41383;51.418;7.286;2023-04-04T06:05:07;101119.03;;;2.32;62.55
55538;BME280;41383;51.418;7.286;2023-04-04T06:07:32;101118.72;;;2.35;62.34
55538;BME280;41383;51.418;7.286;2023-04-04T06:09:58;101118.72;;;2.35;62.81
55538;BME280;41383;51.418;7.286;2023-04-04T06:12:23;101120.88;;;2.40;62.89
55538;BME280;41383;51.418;7.286;2023-04-04T06:14:48;101121.88;;;2.39;62.92
55538;BME280;41383;51.418;7.286;2023-04-04T06:17:14;101126.91;;;2.42;63.17
55538;BME280;41383;51.418;7.286;2023-04-04T06:19:39;101134.94;;;2.50;63.27
55538;BME280;41383;51.418;7.286;2023-04-04T06:22:05;101133.41;;;2.56;62.78
55538;BME280;41383;51.418;7.286;2023-04-04T06:24:30;101132.19;;;2.59;63.09
55538;BME280;41383;51.418;7.286;2023-04-04T06:26:55;101145.13;;;2.63;62.88
55538;BME280;41383;51.418;7.286;2023-04-04T06:29:20;101144.41;;;2.70;62.90
55538;BME280;41383;51.418;7.286;2023-04-04T06:31:48;101155.00;;;2.71;62.55
55538;BME280;41383;51.418;7.286;2023-04-04T06:34:13;101155.00;;;2.71;62.35
55538;BME280;41383;51.418;7.286;2023-04-04T06:36:38;101157.03;;;2.69;63.00
55538;BME280;41383;51.418;7.286;2023-04-04T06:39:04;101167.59;;;2.79;62.03
55538;BME280;41383;51.418;7.286;2023-04-04T06:41:29;101160.72;;;2.76;62.72
55538;BME280;41383;51.418;7.286;2023-04-04T06:43:54;101163.75;;;2.73;63.06
55538;BME280;41383;51.418;7.286;2023-04-04T06:46:19;101168.25;;;2.81;63.25
55538;BME280;41383;51.418;7.286;2023-04-04T06:48:45;101162.50;;;2.84;63.60
55538;BME280;41383;51.418;7.286;2023-04-04T06:51:10;101160.47;;;2.86;62.91
55538;BME280;41383;51.418;7.286;2023-04-04T06:53:36;101158.22;;;2.98;62.94
55538;BME280;41383;51.418;7.286;2023-04-04T06:56:02;101163.22;;;3.01;62.36
55538;BME280;41383;51.418;7.286;2023-04-04T06:58:28;101159.16;;;3.06;62.73
55538;BME280;41383;51.418;7.286;2023-04-04T07:00:53;101161.31;;;3.10;62.25
55538;BME280;41383;51.418;7.286;2023-04-04T07:03:21;101171.25;;;3.10;62.12
55538;BME280;41383;51.418;7.286;2023-04-04T07:05:47;101161.59;;;3.15;61.93
55538;BME280;41383;51.418;7.286;2023-04-04T07:08:12;101161.91;;;3.21;61.76
55538;BME280;41383;51.418;7.286;2023-04-04T07:10:38;101159.16;;;3.29;61.85
55538;BME280;41383;51.418;7.286;2023-04-04T07:13:03;101155.72;;;3.35;61.48
55538;BME280;41383;51.418;7.286;2023-04-04T07:15:28;101160.09;;;3.36;61.14
55538;BME280;41383;51.418;7.286;2023-04-04T07:17:54;101157.94;;;3.32;61.17
55538;BME280;41383;51.418;7.286;2023-04-04T07:20:19;101159.50;;;3.26;61.57
55538;BME280;41383;51.418;7.286;2023-04-04T07:22:44;101158.78;;;3.32;62.05
55538;BME280;41383;51.418;7.286;2023-04-04T07:25:10;101160.19;;;3.43;61.11
55538;BME280;41383;51.418;7.286;2023-04-04T07:27:37;101146.56;;;3.60;60.90
55538;BME280;41383;51.418;7.286;2023-04-04T07:30:03;101160.50;;;3.64;60.92
55538;BME280;41383;51.418;7.286;2023-04-04T07:32:28;101153.09;;;3.66;60.50
55538;BME280;41383;51.418;7.286;2023-04-04T07:34:54;101162.56;;;3.61;61.19
55538;BME280;41383;51.418;7.286;2023-04-04T07:37:19;101163.03;;;3.65;60.82
55538;BME280;41383;51.418;7.286;2023-04-04T07:39:46;101159.50;;;3.80;60.31
55538;BME280;41383;51.418;7.286;2023-04-04T07:42:11;101168.34;;;3.89;59.72
55538;BME280;41383;51.418;7.286;2023-04-04T07:44:36;101160.63;;;4.01;59.22
55538;BME280;41383;51.418;7.286;2023-04-04T07:47:02;101161.56;;;4.08;59.42
55538;BME280;41383;51.418;7.286;2023-04-04T07:49:27;101152.81;;;4.06;58.67
55538;BME280;41383;51.418;7.286;2023-04-04T07:51:53;101161.06;;;4.19;58.73
55538;BME280;41383;51.418;7.286;2023-04-04T07:54:19;101154.06;;;4.25;58.06
55538;BME280;41383;51.418;7.286;2023-04-04T07:56:48;101148.50;;;4.27;57.41
55538;BME280;41383;51.418;7.286;2023-04-04T07:59:13;101153.81;;;4.20;56.44
55538;BME280;41383;51.418;7.286;2023-04-04T08:01:39;101158.91;;;4.30;57.22
55538;BME280;41383;51.418;7.286;2023-04-04T08:04:04;101149.88;;;4.38;56.87
55538;BME280;41383;51.418;7.286;2023-04-04T08:06:29;101154.31;;;4.46;56.97
55538;BME280;41383;51.418;7.286;2023-04-04T08:08:54;101157.31;;;4.51;56.80
55538;BME280;41383;51.418;7.286;2023-04-04T08:11:20;101148.75;;;4.47;55.88
55538;BME280;41383;51.418;7.286;2023-04-04T08:13:45;101150.50;;;4.55;55.58
55538;BME280;41383;51.418;7.286;2023-04-04T08:16:10;101149.13;;;4.81;55.19
55538;BME280;41383;51.418;7.286;2023-04-04T08:18:36;101143.78;;;4.88;55.10
55538;BME280;41383;51.418;7.286;2023-04-04T08:21:01;101140.34;;;5.01;54.93
55538;BME280;41383;51.418;7.286;2023-04-04T08:23:26;101140.28;;;5.16;53.94
55538;BME280;41383;51.418;7.286;2023-04-04T08:25:53;101133.47;;;5.20;53.49
55538;BME280;41383;51.418;7.286;2023-04-04T08:28:19;101132.22;;;5.23;53.08
55538;BME280;41383;51.418;7.286;2023-04-04T08:30:44;101140.44;;;5.08;52.32
55538;BME280;41383;51.418;7.286;2023-04-04T08:33:09;101140.28;;;5.16;53.94
55538;BME280;41383;51.418;7.286;2023-04-04T08:35:35;101134.16;;;5.29;52.96
55538;BME280;41383;51.418;7.286;2023-04-04T08:38:00;101134.91;;;5.23;51.49
55538;BME280;41383;51.418;7.286;2023-04-04T08:40:30;101139.63;;;5.36;52.41
55538;BME280;41383;51.418;7.286;2023-04-04T08:42:57;101133.03;;;5.45;52.12
55538;BME280;41383;51.418;7.286;2023-04-04T08:45:24;101130.66;;;5.64;51.30
55538;BME280;41383;51.418;7.286;2023-04-04T08:47:52;101131.94;;;5.68;50.59
55538;BME280;41383;51.418;7.286;2023-04-04T08:50:19;101131.91;;;5.33;49.08
55538;BME280;41383;51.418;7.286;2023-04-04T08:52:45;101127.22;;;5.48;51.17
55538;BME280;41383;51.418;7.286;2023-04-04T08:55:11;101136.72;;;5.66;51.33
55538;BME280;41383;51.418;7.286;2023-04-04T08:57:36;101131.78;;;5.77;50.26
55538;BME280;41383;51.418;7.286;2023-04-04T09:00:02;101143.47;;;5.84;49.72
55538;BME280;41383;51.418;7.286;2023-04-04T09:02:45;101138.69;;;5.79;49.66
55538;BME280;41383;51.418;7.286;2023-04-04T09:05:14;101143.94;;;5.94;49.71
55538;BME280;41383;51.418;7.286;2023-04-04T09:07:40;101145.38;;;5.90;48.66
55538;BME280;41383;51.418;7.286;2023-04-04T09:10:09;101133.31;;;5.93;49.42
55538;BME280;41383;51.418;7.286;2023-04-04T09:12:45;101140.88;;;6.04;48.87
55538;BME280;41383;51.418;7.286;2023-04-04T09:15:12;101137.03;;;5.85;49.42
55538;BME280;41383;51.418;7.286;2023-04-04T09:17:37;101133.75;;;5.90;48.54
55538;BME280;41383;51.418;7.286;2023-04-04T09:21:07;101131.13;;;5.75;46.32
55538;BME280;41383;51.418;7.286;2023-04-04T09:23:12;101136.59;;;6.10;48.08
55538;BME280;41383;51.418;7.286;2023-04-04T09:25:46;101132.69;;;6.33;48.27
55538;BME280;41383;51.418;7.286;2023-04-04T09:28:13;101129.84;;;6.55;47.74
55538;BME280;41383;51.418;7.286;2023-04-04T09:30:39;101117.97;;;6.56;46.58
55538;BME280;41383;51.418;7.286;2023-04-04T09:33:05;101122.78;;;6.68;47.26
55538;BME280;41383;51.418;7.286;2023-04-04T09:35:36;101125.69;;;6.59;46.89
55538;BME280;41383;51.418;7.286;2023-04-04T09:38:04;101118.19;;;6.61;46.57
55538;BME280;41383;51.418;7.286;2023-04-04T09:40:30;101116.56;;;6.74;46.82
55538;BME280;41383;51.418;7.286;2023-04-04T09:42:59;101120.53;;;6.92;46.65
55538;BME280;41383;51.418;7.286;2023-04-04T09:45:25;101121.97;;;6.67;46.07
55538;BME280;41383;51.418;7.286;2023-04-04T09:47:50;101114.50;;;6.83;46.14
55538;BME280;41383;51.418;7.286;2023-04-04T09:50:23;101115.34;;;6.83;44.59
55538;BME280;41383;51.418;7.286;2023-04-04T09:52:50;101111.38;;;6.93;44.98
55538;BME280;41383;51.418;7.286;2023-04-04T09:55:16;101110.34;;;7.07;44.76
55538;BME280;41383;51.418;7.286;2023-04-04T09:57:42;101110.13;;;6.95;44.04
55538;BME280;41383;51.418;7.286;2023-04-04T10:00:07;101108.88;;;7.32;45.70
55538;BME280;41383;51.418;7.286;2023-04-04T10:02:36;101103.03;;;7.42;45.24
55538;BME280;41383;51.418;7.286;2023-04-04T10:05:02;101104.69;;;7.56;44.26
55538;BME280;41383;51.418;7.286;2023-04-04T10:07:29;101102.53;;;7.72;45.09
55538;BME280;41383;51.418;7.286;2023-04-04T10:09:54;101099.22;;;7.77;44.22
55538;BME280;41383;51.418;7.286;2023-04-04T10:12:23;101097.69;;;7.88;44.10
55538;BME280;41383;51.418;7.286;2023-04-04T10:14:59;101103.53;;;7.91;42.75
55538;BME280;41383;51.418;7.286;2023-04-04T10:17:52;101086.34;;;8.04;42.38
55538;BME280;41383;51.418;7.286;2023-04-04T10:20:18;101094.53;;;7.98;42.34
55538;BME280;41383;51.418;7.286;2023-04-04T10:22:44;101086.41;;;7.91;42.96
55538;BME280;41383;51.418;7.286;2023-04-04T10:25:10;101079.56;;;8.27;43.07
55538;BME280;41383;51.418;7.286;2023-04-04T10:27:35;101077.84;;;8.40;42.71
55538;BME280;41383;51.418;7.286;2023-04-04T10:30:03;101075.78;;;8.28;41.75
55538;BME280;41383;51.418;7.286;2023-04-04T10:32:49;101079.88;;;8.45;43.10
55538;BME280;41383;51.418;7.286;2023-04-04T10:35:20;101071.97;;;8.43;42.94
55538;BME280;41383;51.418;7.286;2023-04-04T10:37:53;101081.09;;;8.56;42.16
55538;BME280;41383;51.418;7.286;2023-04-04T10:40:21;101075.59;;;8.69;42.15
55538;BME280;41383;51.418;7.286;2023-04-04T10:42:49;101080.84;;;8.96;42.00
55538;BME280;41383;51.418;7.286;2023-04-04T10:45:15;101059.84;;;9.04;41.77
55538;BME280;41383;51.418;7.286;2023-04-04T10:47:42;101057.25;;;8.90;40.13
55538;BME280;41383;51.418;7.286;2023-04-04T10:50:08;101052.75;;;9.03;40.60
55538;BME280;41383;51.418;7.286;2023-04-04T10:52:37;101061.00;;;9.15;40.72
55538;BME280;41383;51.418;7.286;2023-04-04T10:55:05;101047.34;;;8.96;39.99
55538;BME280;41383;51.418;7.286;2023-04-04T10:57:32;101054.66;;;9.21;41.52
55538;BME280;41383;51.418;7.286;2023-04-04T11:00:17;101055.88;;;9.25;40.54
55538;BME280;41383;51.418;7.286;2023-04-04T11:02:54;101054.31;;;9.55;40.09
55538;BME280;41383;51.418;7.286;2023-04-04T11:08:03;101045.78;;;9.70;39.80
55538;BME280;41383;51.418;7.286;2023-04-04T11:10:31;101034.81;;;9.77;40.02
55538;BME280;41383;51.418;7.286;2023-04-04T11:13:01;101038.13;;;9.79;39.17
55538;BME280;41383;51.418;7.286;2023-04-04T11:15:58;101039.50;;;9.69;38.27
55538;BME280;41383;51.418;7.286;2023-04-04T11:21:08;101027.84;;;9.81;38.04
55538;BME280;41383;51.418;7.286;2023-04-04T11:28:54;101027.81;;;10.00;37.33
55538;BME280;41383;51.418;7.286;2023-04-04T11:31:25;101029.75;;;10.11;37.36
55538;BME280;41383;51.418;7.286;2023-04-04T11:39:27;101029.31;;;9.02;36.54
55538;BME280;41383;51.418;7.286;2023-04-04T11:42:04;101025.25;;;9.11;37.78
55538;BME280;41383;51.418;7.286;2023-04-04T11:44:33;101015.28;;;9.23;37.88
55538;BME280;41383;51.418;7.286;2023-04-04T11:49:35;101019.81;;;8.60;38.72
55538;BME280;41383;51.418;7.286;2023-04-04T11:52:09;101015.66;;;8.83;37.16
55538;BME280;41383;51.418;7.286;2023-04-04T11:54:36;101014.34;;;8.92;36.29
55538;BME280;41383;51.418;7.286;2023-04-04T11:57:02;101016.09;;;8.80;35.95
55538;BME280;41383;51.418;7.286;2023-04-04T11:59:28;101000.34;;;9.33;36.38
55538;BME280;41383;51.418;7.286;2023-04-04T12:01:54;101010.06;;;9.78;36.73
55538;BME280;41383;51.418;7.286;2023-04-04T12:04:20;101013.78;;;9.46;36.60
55538;BME280;41383;51.418;7.286;2023-04-04T12:06:51;101011.22;;;9.52;36.00
55538;BME280;41383;51.418;7.286;2023-04-04T12:09:17;101012.13;;;9.45;35.73
55538;BME280;41383;51.418;7.286;2023-04-04T12:11:45;100998.22;;;9.54;36.27
55538;BME280;41383;51.418;7.286;2023-04-04T12:14:22;100995.34;;;9.49;36.03
55538;BME280;41383;51.418;7.286;2023-04-04T12:16:55;100999.28;;;9.53;34.56
55538;BME280;41383;51.418;7.286;2023-04-04T12:19:22;100993.34;;;9.56;35.23
55538;BME280;41383;51.418;7.286;2023-04-04T12:21:48;100983.16;;;9.32;35.37
55538;BME280;41383;51.418;7.286;2023-04-04T12:24:14;100983.91;;;9.02;36.50
55538;BME280;41383;51.418;7.286;2023-04-04T12:26:41;100971.69;;;9.49;35.58
55538;BME280;41383;51.418;7.286;2023-04-04T12:29:08;100969.09;;;9.17;36.01
55538;BME280;41383;51.418;7.286;2023-04-04T12:31:35;100975.97;;;8.75;36.99
55538;BME280;41383;51.418;7.286;2023-04-04T12:34:02;100976.41;;;8.97;36.61
55538;BME280;41383;51.418;7.286;2023-04-04T12:36:31;100965.81;;;9.64;38.16
55538;BME280;41383;51.418;7.286;2023-04-04T12:39:03;100963.75;;;9.48;36.49
55538;BME280;41383;51.418;7.286;2023-04-04T12:41:29;100955.13;;;9.13;36.73
55538;BME280;41383;51.418;7.286;2023-04-04T12:44:05;100948.56;;;9.21;36.27
55538;BME280;41383;51.418;7.286;2023-04-04T12:46:38;100946.88;;;9.20;37.10
55538;BME280;41383;51.418;7.286;2023-04-04T12:49:10;100934.47;;;9.92;35.73
55538;BME280;41383;51.418;7.286;2023-04-04T12:51:36;100943.81;;;9.97;36.12
55538;BME280;41383;51.418;7.286;2023-04-04T12:54:04;100940.16;;;10.03;35.38
55538;BME280;41383;51.418;7.286;2023-04-04T12:56:31;100933.34;;;9.81;34.94
55538;BME280;41383;51.418;7.286;2023-04-04T12:59:01;100924.34;;;10.24;33.86
55538;BME280;41383;51.418;7.286;2023-04-04T13:01:30;100930.84;;;10.66;33.94
55538;BME280;41383;51.418;7.286;2023-04-04T13:04:00;100923.34;;;10.61;34.12
55538;BME280;41383;51.418;7.286;2023-04-04T13:06:27;100924.25;;;9.88;33.98
55538;BME280;41383;51.418;7.286;2023-04-04T13:08:54;100926.81;;;10.25;34.66
55538;BME280;41383;51.418;7.286;2023-04-04T13:11:19;100914.53;;;9.80;34.14
55538;BME280;41383;51.418;7.286;2023-04-04T13:13:46;100913.88;;;9.66;35.16
55538;BME280;41383;51.418;7.286;2023-04-04T13:16:12;100907.88;;;10.31;35.31
55538;BME280;41383;51.418;7.286;2023-04-04T13:18:42;100906.25;;;9.99;35.54